createdAt,value
2023-04-20T00:00:44.711Z,91.08
2023-04-20T00:02:16.979Z,91.55
2023-04-20T00:03:49.222Z,91.49
2023-04-20T00:05:21.894Z,91.33
2023-04-20T00:06:54.498Z,91.46
2023-04-20T00:08:26.694Z,91.27
2023-04-20T00:09:58.925Z,91.45
2023-04-20T00:11:31.534Z,91.15
2023-04-20T00:13:03.597Z,91.44
2023-04-20T00:14:35.624Z,91.58
2023-04-20T00:16:07.944Z,91.65
2023-04-20T00:17:40.111Z,91.65
2023-04-20T00:19:12.581Z,91.70
2023-04-20T00:20:44.658Z,91.75
2023-04-20T00:22:17.114Z,91.91
2023-04-20T00:23:49.227Z,92.05
2023-04-20T00:25:21.764Z,91.81
2023-04-20T00:26:53.890Z,91.97
2023-04-20T00:28:25.964Z,91.95
2023-04-20T00:29:58.233Z,91.92
2023-04-20T00:31:31.928Z,92.12
2023-04-20T00:33:04.314Z,91.99
2023-04-20T00:34:36.507Z,91.93
2023-04-20T00:36:09.136Z,91.93
2023-04-20T00:37:41.337Z,92.07
2023-04-20T00:39:13.499Z,91.89
2023-04-20T00:40:49.354Z,91.95
2023-04-20T00:42:21.476Z,91.95
2023-04-20T00:43:54.668Z,91.84
2023-04-20T00:45:26.799Z,91.82
2023-04-20T00:46:58.998Z,91.72
2023-04-20T00:48:31.108Z,91.68
2023-04-20T00:50:03.540Z,91.83
2023-04-20T00:51:35.969Z,91.61
2023-04-20T00:53:08.635Z,91.73
2023-04-20T00:54:41.118Z,91.47
2023-04-20T00:56:16.957Z,91.34
2023-04-20T00:57:49.735Z,91.28
2023-04-20T00:59:22.543Z,91.06
2023-04-20T01:00:54.801Z,91.03
2023-04-20T01:02:28.007Z,91.23
2023-04-20T01:04:00.294Z,91.00
2023-04-20T01:05:32.719Z,91.16
2023-04-20T01:07:04.838Z,91.01
2023-04-20T01:08:37.346Z,90.58
2023-04-20T01:10:10.115Z,90.75
2023-04-20T01:11:42.364Z,90.80
2023-04-20T01:13:14.408Z,90.58
2023-04-20T01:14:46.397Z,90.70
2023-04-20T01:16:18.474Z,90.33
2023-04-20T01:17:50.574Z,90.33
2023-04-20T01:19:23.014Z,90.18
2023-04-20T01:20:55.031Z,89.80
2023-04-20T01:22:27.505Z,89.87
2023-04-20T01:23:59.599Z,89.89
2023-04-20T01:25:31.689Z,90.03
2023-04-20T01:27:04.034Z,89.98
2023-04-20T01:28:36.248Z,89.58
2023-04-20T01:30:09.084Z,89.85
2023-04-20T01:31:41.456Z,89.74
2023-04-20T01:33:13.621Z,90.12
2023-04-20T01:34:45.892Z,90.06
2023-04-20T01:36:18.097Z,90.39
2023-04-20T01:37:50.182Z,90.11
2023-04-20T01:39:22.269Z,90.13
2023-04-20T01:40:55.786Z,90.17
2023-04-20T01:42:27.738Z,89.88
2023-04-20T01:43:59.955Z,89.81
2023-04-20T01:45:32.057Z,89.69
2023-04-20T01:47:04.275Z,89.08
2023-04-20T01:48:36.519Z,89.29
2023-04-20T01:50:11.991Z,89.36
2023-04-20T01:51:44.032Z,89.24
2023-04-20T01:53:16.009Z,88.85
2023-04-20T01:54:47.991Z,88.80
2023-04-20T01:56:20.108Z,89.02
2023-04-20T01:57:52.264Z,88.92
2023-04-20T01:59:24.465Z,89.17
2023-04-20T02:00:56.821Z,89.13
2023-04-20T02:02:29.056Z,89.15
2023-04-20T02:04:01.656Z,89.20
2023-04-20T02:05:33.941Z,88.84
2023-04-20T02:07:06.104Z,88.33
2023-04-20T02:08:38.365Z,88.37
2023-04-20T02:10:10.905Z,88.54
2023-04-20T02:11:43.089Z,89.10
2023-04-20T02:13:15.459Z,88.82
2023-04-20T02:14:47.518Z,89.27
2023-04-20T02:16:19.610Z,89.04
2023-04-20T02:17:52.878Z,88.56
2023-04-20T02:19:25.035Z,88.19
2023-04-20T02:20:57.165Z,88.11
2023-04-20T02:22:29.257Z,88.20
2023-04-20T02:24:01.742Z,88.08
2023-04-20T02:25:33.857Z,87.92
2023-04-20T02:27:06.163Z,88.03
2023-04-20T02:28:38.247Z,87.78
2023-04-20T02:30:11.012Z,88.14
2023-04-20T02:31:43.189Z,88.46
2023-04-20T02:33:15.407Z,88.69
2023-04-20T02:34:47.488Z,88.80
2023-04-20T02:36:21.815Z,88.88
2023-04-20T02:37:53.906Z,88.69
2023-04-20T05:12:04.641Z,94.90
2023-04-20T05:13:36.758Z,94.75
2023-04-20T05:15:09.287Z,94.93
2023-04-20T05:16:41.697Z,94.88
2023-04-20T05:18:13.935Z,94.75
2023-04-20T05:19:46.152Z,94.68
2023-04-20T05:21:18.243Z,94.42
2023-04-20T05:22:50.388Z,94.43
2023-04-20T05:24:22.548Z,94.64
2023-04-20T05:25:54.724Z,94.41
2023-04-20T05:27:27.017Z,94.49
2023-04-20T05:28:59.119Z,94.19
2023-04-20T05:30:31.818Z,94.35
2023-04-20T05:32:04.238Z,94.43
2023-04-20T05:33:39.836Z,94.17
2023-04-20T05:35:11.923Z,94.30
2023-04-20T05:36:44.022Z,94.16
2023-04-20T05:38:16.562Z,94.13
2023-04-20T05:39:48.812Z,94.45
2023-04-20T05:41:21.084Z,94.25
2023-04-20T05:42:53.246Z,94.32
2023-04-20T05:44:25.315Z,94.34
2023-04-20T05:45:57.591Z,94.31
2023-04-20T05:47:29.850Z,94.13
2023-04-20T05:49:02.020Z,94.12
2023-04-20T05:50:34.153Z,93.63
2023-04-20T05:52:06.354Z,93.40
2023-04-20T05:53:38.557Z,93.05
2023-04-20T05:55:10.611Z,93.26
2023-04-20T05:56:42.706Z,92.93
2023-04-20T05:58:15.295Z,92.69
2023-04-20T05:59:47.478Z,92.54
2023-04-20T06:01:19.680Z,92.02
2023-04-20T06:02:52.166Z,91.91
2023-04-20T06:04:24.713Z,91.48
2023-04-20T06:05:57.201Z,91.14
2023-04-20T06:07:29.343Z,91.00
2023-04-20T06:09:01.536Z,91.12
2023-04-20T06:10:34.581Z,90.99
2023-04-20T06:12:06.926Z,90.73
2023-04-20T06:13:39.013Z,90.32
2023-04-20T06:15:11.385Z,90.39
2023-04-20T06:16:43.484Z,90.30
2023-04-20T06:18:15.878Z,89.83
2023-04-20T06:19:48.088Z,89.55
2023-04-20T06:21:20.574Z,89.50
2023-04-20T06:22:52.702Z,89.63
2023-04-20T06:24:24.891Z,89.60
2023-04-20T06:25:56.993Z,89.60
2023-04-20T06:27:29.115Z,89.42
2023-04-20T06:29:01.493Z,89.73
2023-04-20T06:30:34.412Z,89.55
2023-04-20T06:32:06.682Z,89.08
2023-04-20T06:33:39.045Z,89.01
2023-04-20T06:35:11.207Z,89.04
2023-04-20T06:36:44.223Z,89.03
2023-04-20T06:38:16.253Z,88.64
2023-04-20T06:39:48.415Z,88.92
2023-04-20T06:41:20.571Z,88.64
2023-04-20T06:42:52.696Z,88.64
2023-04-20T06:44:24.827Z,88.68
2023-04-20T06:45:57.225Z,88.36
2023-04-20T06:47:32.354Z,88.34
2023-04-20T06:49:04.577Z,88.11
2023-04-20T06:50:36.766Z,87.80
2023-04-20T06:52:08.924Z,87.77
2023-04-20T06:53:41.165Z,88.24
2023-04-20T06:55:13.705Z,88.25
2023-04-20T06:56:45.874Z,88.20
2023-04-20T06:58:17.945Z,88.15
2023-04-20T06:59:50.149Z,88.03
2023-04-20T07:01:22.394Z,87.88
2023-04-20T07:02:56.754Z,87.64
2023-04-20T07:04:28.949Z,87.00
2023-04-20T07:06:01.072Z,86.74
2023-04-20T07:07:33.153Z,86.83
2023-04-20T07:09:05.584Z,87.06
2023-04-20T07:10:37.712Z,87.18
2023-04-20T07:12:11.738Z,86.83
2023-04-20T07:13:43.807Z,86.94
2023-04-20T07:15:16.131Z,86.53
2023-04-20T07:16:48.404Z,86.39
2023-04-20T07:18:20.594Z,86.14
2023-04-20T07:19:55.520Z,85.96
2023-04-20T07:21:27.819Z,85.36
2023-04-20T07:22:59.873Z,85.28
2023-04-20T07:24:32.239Z,84.70
2023-04-20T07:26:04.317Z,84.03
2023-04-20T07:27:40.779Z,83.09
2023-04-20T07:29:12.986Z,83.51
2023-04-20T07:30:45.120Z,83.37
2023-04-20T07:32:17.422Z,82.79
2023-04-20T07:33:49.592Z,82.36
2023-04-20T07:35:21.924Z,79.77
2023-04-20T07:36:54.013Z,79.56
2023-04-20T07:38:26.313Z,78.98
2023-04-20T07:39:58.429Z,77.98
2023-04-20T07:41:30.690Z,76.23
2023-04-20T07:43:02.796Z,76.48
2023-04-20T07:46:21.060Z,74.03
2023-04-20T07:47:54.645Z,69.16
2023-04-20T07:49:26.732Z,66.66
2023-04-20T07:50:58.763Z,68.13
2023-04-20T07:52:31.101Z,66.28
2023-04-20T07:54:03.807Z,66.21
2023-04-20T07:55:36.330Z,65.51
2023-04-20T07:57:09.877Z,65.64
2023-04-20T07:58:42.127Z,65.63
2023-04-20T08:00:15.514Z,64.93
2023-04-20T08:01:47.453Z,64.47
2023-04-20T08:03:19.889Z,65.00
2023-04-20T08:04:52.584Z,65.20
2023-04-20T08:06:25.008Z,64.64
2023-04-20T08:07:57.093Z,63.95
2023-04-20T08:09:30.000Z,64.86
2023-04-20T08:11:02.170Z,63.53
2023-04-20T08:14:22.789Z,63.75
2023-04-20T08:15:55.026Z,64.01
2023-04-20T08:17:27.901Z,63.44
2023-04-20T08:19:02.110Z,62.68
2023-04-20T08:20:35.212Z,62.42
2023-04-20T08:22:07.341Z,62.75
2023-04-20T08:23:39.442Z,63.42
2023-04-20T08:25:14.618Z,64.07
2023-04-20T08:26:46.786Z,60.88
2023-04-20T08:28:32.463Z,62.13
2023-04-20T08:30:06.600Z,62.82
2023-04-20T08:31:38.856Z,62.26
2023-04-20T08:33:11.167Z,61.63
2023-04-20T08:34:43.280Z,61.03
2023-04-20T08:36:15.622Z,59.96
2023-04-20T08:37:47.913Z,60.00
2023-04-20T08:39:22.144Z,60.07
2023-04-20T08:40:54.294Z,61.10
2023-04-20T08:42:26.380Z,60.13
2023-04-20T08:43:58.562Z,60.65
2023-04-20T08:45:31.115Z,59.77
2023-04-20T08:47:03.930Z,60.63
2023-04-20T08:48:37.522Z,60.65
2023-04-20T08:50:10.183Z,60.08
2023-04-20T08:51:43.949Z,60.23
2023-04-20T08:53:16.257Z,59.21
2023-04-20T08:54:56.830Z,59.10
2023-04-20T08:56:37.536Z,59.78
2023-04-20T08:58:09.874Z,59.90
2023-04-20T08:59:42.049Z,59.12
2023-04-20T09:01:17.644Z,59.79
2023-04-20T09:02:54.651Z,58.13
2023-04-20T09:04:28.131Z,57.22
2023-04-20T09:06:00.578Z,56.99
2023-04-20T09:07:32.932Z,56.50
2023-04-20T09:09:10.865Z,56.20
2023-04-20T09:10:44.944Z,56.17
2023-04-20T09:12:17.110Z,56.97
2023-04-20T09:14:07.051Z,58.61
2023-04-20T09:15:39.107Z,58.92
2023-04-20T09:17:14.838Z,59.31
2023-04-20T09:18:54.921Z,58.74
2023-04-20T09:20:29.213Z,56.81
2023-04-20T09:22:05.709Z,55.57
2023-04-20T09:23:38.005Z,56.16
2023-04-20T09:25:14.998Z,55.06
2023-04-20T09:26:47.673Z,56.22
2023-04-20T09:28:20.181Z,56.64
2023-04-20T09:30:02.256Z,55.54
2023-04-20T09:31:37.182Z,55.53
2023-04-20T09:33:11.251Z,58.58
2023-04-20T09:34:47.004Z,56.66
2023-04-20T09:36:19.340Z,54.58
2023-04-20T09:37:51.432Z,55.19
2023-04-20T09:39:24.758Z,54.54
2023-04-20T09:40:57.019Z,54.85
2023-04-20T09:42:29.560Z,55.74
2023-04-20T09:44:02.547Z,54.36
2023-04-20T09:45:35.148Z,54.87
2023-04-20T09:47:09.236Z,55.07
2023-04-20T09:48:41.594Z,56.82
2023-04-20T09:50:26.610Z,55.24
2023-04-20T09:52:05.990Z,54.82
2023-04-20T09:53:38.949Z,55.58
2023-04-20T09:55:11.584Z,55.22
2023-04-20T09:56:43.929Z,54.92
2023-04-20T09:58:18.913Z,54.91
2023-04-20T09:59:53.397Z,54.51
2023-04-20T10:01:25.993Z,53.71
2023-04-20T10:02:58.437Z,52.67
2023-04-20T10:04:30.941Z,52.40
2023-04-20T10:06:03.234Z,51.87
2023-04-20T10:07:35.748Z,53.53
2023-04-20T10:09:09.286Z,53.94
2023-04-20T10:10:50.205Z,51.97
2023-04-20T10:12:22.285Z,52.24
2023-04-20T10:13:54.575Z,52.46
2023-04-20T10:15:40.983Z,52.21
2023-04-20T10:17:13.202Z,52.18
2023-04-20T10:19:03.515Z,51.91
2023-04-20T10:20:35.626Z,52.84
2023-04-20T10:22:09.041Z,53.16
2023-04-20T10:23:51.767Z,53.91
2023-04-20T10:25:27.260Z,52.08
2023-04-20T10:26:59.849Z,51.64
2023-04-20T10:28:42.294Z,52.21
2023-04-20T10:30:15.072Z,52.51
2023-04-20T10:31:47.369Z,53.15
2023-04-20T10:33:20.023Z,54.41
2023-04-20T10:35:05.392Z,55.56
2023-04-20T10:36:38.626Z,54.67
2023-04-20T10:38:11.954Z,52.37
2023-04-20T10:39:47.130Z,54.15
2023-04-20T10:41:19.412Z,54.40
2023-04-20T10:42:51.553Z,52.66
2023-04-20T10:44:23.796Z,53.47
2023-04-20T10:45:56.041Z,53.50
2023-04-20T10:47:32.787Z,54.59
2023-04-20T10:49:04.915Z,55.30
2023-04-20T10:50:37.429Z,55.53
2023-04-20T10:52:10.152Z,53.03
2023-04-20T10:53:42.282Z,53.73
2023-04-20T10:55:24.837Z,52.99
2023-04-20T10:56:57.582Z,53.56
2023-04-20T10:58:29.850Z,53.32
2023-04-20T11:00:16.926Z,53.27
2023-04-20T11:01:50.006Z,53.07
2023-04-20T11:03:22.261Z,50.24
2023-04-20T11:04:56.348Z,50.48
2023-04-20T11:06:29.108Z,52.25
2023-04-20T11:08:04.380Z,51.19
2023-04-20T11:09:38.695Z,50.91
2023-04-20T11:11:28.085Z,50.90
2023-04-20T11:13:00.288Z,51.68
2023-04-20T11:14:37.910Z,51.38
2023-04-20T11:16:14.059Z,53.07
2023-04-20T11:17:47.257Z,53.75
2023-04-20T11:19:27.543Z,53.07
2023-04-20T11:20:59.741Z,53.69
2023-04-20T11:22:32.750Z,54.21
2023-04-20T11:24:06.648Z,54.34
2023-04-20T11:25:52.072Z,53.22
2023-04-20T11:27:25.100Z,53.16
2023-04-20T11:28:57.302Z,53.05
2023-04-20T11:30:39.179Z,52.85
2023-04-20T11:32:11.931Z,52.04
2023-04-20T11:33:44.089Z,52.41
2023-04-20T11:35:16.602Z,54.19
2023-04-20T11:36:51.016Z,53.33
2023-04-20T11:38:30.005Z,53.28
2023-04-20T11:40:09.934Z,53.50
2023-04-20T11:41:42.913Z,52.55
2023-04-20T11:43:15.842Z,52.79
2023-04-20T11:44:47.937Z,53.83
2023-04-20T11:46:23.782Z,54.21
2023-04-20T11:47:56.100Z,54.30
2023-04-20T11:49:29.434Z,52.55
2023-04-20T11:51:01.378Z,52.33
2023-04-20T11:52:33.850Z,52.27
2023-04-20T11:54:05.979Z,52.80
2023-04-20T11:55:38.024Z,53.19
2023-04-20T11:57:10.163Z,53.34
2023-04-20T11:58:42.338Z,53.64
2023-04-20T12:01:48.677Z,52.22
2023-04-20T12:03:21.125Z,51.85
2023-04-20T12:04:53.496Z,51.18
2023-04-20T12:06:25.811Z,50.33
2023-04-20T12:07:57.886Z,51.28
2023-04-20T12:09:30.892Z,49.62
2023-04-20T12:11:03.070Z,49.11
2023-04-20T12:12:35.264Z,50.24
2023-04-20T12:14:07.390Z,49.54
2023-04-20T12:15:39.617Z,49.71
2023-04-20T12:17:12.068Z,49.60
2023-04-20T12:18:44.260Z,49.09
2023-04-20T12:20:16.392Z,49.99
2023-04-20T12:21:48.546Z,50.50
2023-04-20T12:23:20.801Z,51.31
2023-04-20T12:24:52.971Z,50.35
2023-04-20T12:26:34.890Z,49.90
2023-04-20T12:28:10.435Z,49.93
2023-04-20T12:29:43.747Z,50.80
2023-04-20T12:31:16.329Z,50.88
2023-04-20T12:32:48.627Z,51.93
2023-04-20T12:34:21.126Z,52.13
2023-04-20T12:35:53.424Z,51.51
2023-04-20T12:37:25.636Z,50.98
2023-04-20T12:38:57.880Z,49.10
2023-04-20T12:40:30.032Z,49.51
2023-04-20T12:42:03.000Z,49.09
2023-04-20T12:43:35.177Z,48.12
2023-04-20T12:45:07.970Z,46.06
2023-04-20T12:46:40.249Z,45.62
2023-04-20T12:48:12.429Z,44.90
2023-04-20T12:49:44.564Z,45.15
2023-04-20T12:51:16.884Z,42.81
2023-04-20T12:52:49.074Z,44.54
2023-04-20T12:54:21.317Z,43.54
2023-04-20T12:56:00.827Z,43.60
2023-04-20T12:57:33.854Z,45.13
2023-04-20T12:59:05.973Z,45.67
2023-04-20T13:00:38.084Z,45.93
2023-04-20T13:02:10.386Z,46.08
2023-04-20T13:03:42.770Z,46.72
2023-04-20T13:05:15.119Z,46.94
2023-04-20T13:06:47.245Z,47.16
2023-04-20T13:08:22.889Z,46.55
2023-04-20T13:09:55.036Z,47.18
2023-04-20T13:11:27.413Z,48.04
2023-04-20T13:13:00.315Z,48.50
2023-04-20T13:14:32.779Z,49.11
2023-04-20T13:16:05.085Z,49.28
2023-04-20T13:17:37.248Z,49.80
2023-04-20T13:19:09.423Z,50.21
2023-04-20T13:20:41.634Z,49.49
2023-04-20T13:22:17.396Z,49.81
2023-04-20T13:23:51.485Z,49.16
2023-04-20T13:25:23.829Z,49.54
2023-04-20T13:26:59.404Z,50.24
2023-04-20T13:28:31.586Z,50.31
2023-04-20T13:30:05.315Z,50.81
2023-04-20T13:31:37.960Z,50.42
2023-04-20T13:33:10.891Z,50.67
2023-04-20T13:34:43.090Z,49.99
2023-04-20T13:36:15.384Z,50.06
2023-04-20T13:37:47.622Z,49.78
2023-04-20T13:39:21.254Z,49.60
2023-04-20T13:40:53.495Z,50.80
2023-04-20T13:42:25.984Z,50.56
2023-04-20T13:44:00.650Z,50.49
2023-04-20T13:45:32.796Z,50.51
2023-04-20T13:47:05.054Z,50.69
2023-04-20T13:48:37.323Z,51.40
2023-04-20T13:50:10.074Z,50.96
2023-04-20T13:51:42.227Z,51.67
2023-04-20T13:53:14.312Z,52.01
2023-04-20T13:54:46.403Z,51.34
2023-04-20T13:56:18.816Z,51.42
2023-04-20T13:57:50.903Z,50.32
2023-04-20T13:59:23.380Z,49.66
2023-04-20T14:00:55.542Z,47.56
2023-04-20T14:02:28.791Z,49.18
2023-04-20T14:04:01.214Z,49.57
2023-04-20T14:05:33.491Z,48.33
2023-04-20T14:07:05.858Z,48.65
2023-04-20T14:08:37.980Z,48.32
2023-04-20T14:10:10.447Z,47.60
2023-04-20T14:11:44.060Z,47.94
2023-04-20T14:13:16.253Z,48.21
2023-04-20T14:14:48.827Z,47.66
2023-04-20T14:16:21.155Z,47.76
2023-04-20T14:17:53.560Z,47.94
2023-04-20T14:19:25.934Z,46.54
2023-04-20T14:20:58.039Z,47.13
2023-04-20T14:22:36.205Z,48.03
2023-04-20T14:24:08.441Z,48.18
2023-04-20T14:25:40.766Z,48.25
2023-04-20T14:27:12.913Z,47.54
2023-04-20T14:28:46.236Z,46.97
2023-04-20T14:30:18.191Z,46.83
2023-04-20T14:31:50.295Z,47.45
2023-04-20T14:33:22.482Z,47.21
2023-04-20T14:34:54.428Z,47.36
2023-04-20T14:36:26.395Z,47.56
2023-04-20T14:37:58.554Z,48.20
2023-04-20T14:39:30.501Z,47.45
2023-04-20T14:41:02.393Z,47.03
2023-04-20T14:42:34.307Z,47.40
2023-04-20T14:44:06.402Z,47.67
2023-04-20T14:45:39.649Z,48.05
2023-04-20T14:47:11.730Z,48.22
2023-04-20T14:48:46.563Z,48.27
2023-04-20T14:50:18.594Z,48.24
2023-04-20T14:51:51.057Z,48.15
2023-04-20T14:53:23.183Z,48.77
2023-04-20T14:54:55.190Z,48.35
2023-04-20T14:56:27.222Z,49.06
2023-04-20T15:58:00.834Z,64.84
2023-04-20T15:59:33.228Z,64.54
2023-04-20T16:01:05.627Z,65.04
2023-04-20T16:02:40.338Z,64.92
2023-04-20T16:04:14.163Z,64.88
2023-04-20T16:05:46.490Z,65.17
2023-04-20T16:07:21.811Z,66.19
2023-04-20T16:08:55.076Z,66.35
2023-04-20T16:10:27.896Z,65.61
2023-04-20T16:12:00.201Z,65.55
2023-04-20T16:13:32.461Z,65.79
2023-04-20T16:15:04.972Z,66.18
2023-04-20T16:16:37.123Z,66.33
2023-04-20T16:18:09.256Z,67.31
2023-04-20T16:19:41.927Z,66.26
2023-04-20T16:21:15.006Z,66.59
2023-04-20T16:22:47.194Z,66.39
2023-04-20T16:25:52.475Z,65.35
2023-04-20T16:27:24.610Z,66.54
2023-04-20T16:28:56.710Z,66.77
2023-04-20T16:30:28.853Z,67.63
2023-04-20T16:32:01.333Z,67.88
2023-04-20T16:33:33.482Z,67.83
2023-04-20T16:35:06.119Z,67.38
2023-04-20T16:36:38.259Z,66.19
2023-04-20T16:38:11.496Z,67.54
2023-04-20T16:39:43.937Z,67.56
2023-04-20T16:41:16.927Z,65.30
2023-04-20T16:42:49.154Z,65.91
2023-04-20T16:44:21.694Z,65.46
2023-04-20T16:45:53.871Z,64.95
2023-04-20T16:47:26.323Z,64.57
2023-04-20T16:48:58.508Z,64.57
2023-04-20T16:50:30.698Z,64.39
2023-04-20T16:52:02.855Z,64.65
2023-04-20T16:53:35.501Z,64.49
2023-04-20T16:55:08.336Z,64.32
2023-04-20T16:56:41.161Z,64.59
2023-04-20T16:58:13.427Z,64.90
2023-04-20T16:59:45.961Z,65.54
2023-04-20T17:01:18.388Z,65.56
2023-04-20T17:02:51.029Z,65.99
2023-04-20T17:04:23.546Z,66.05
2023-04-20T17:05:56.217Z,65.74
2023-04-20T17:07:28.868Z,65.73
2023-04-20T17:09:07.298Z,65.86
2023-04-20T17:10:39.874Z,66.01
2023-04-20T17:12:12.244Z,66.02
2023-04-20T17:13:44.580Z,65.91
2023-04-20T17:15:16.796Z,65.39
2023-04-20T17:16:49.104Z,65.32
2023-04-20T17:18:21.348Z,64.92
2023-04-20T17:19:53.489Z,64.33
2023-04-20T17:21:27.336Z,64.65
2023-04-20T17:22:59.530Z,64.63
2023-04-20T17:24:31.676Z,64.49
2023-04-20T17:26:03.868Z,64.67
2023-04-20T17:27:36.116Z,64.78
2023-04-20T17:29:08.483Z,64.76
2023-04-20T17:30:41.750Z,65.14
2023-04-20T17:32:14.322Z,65.57
2023-04-20T17:33:46.632Z,65.59
2023-04-20T17:35:18.839Z,65.54
2023-04-20T17:36:51.061Z,65.67
2023-04-20T17:38:23.621Z,65.60
2023-04-20T17:39:56.254Z,65.29
2023-04-20T17:41:28.888Z,65.22
2023-04-20T17:43:02.882Z,65.47
2023-04-20T17:44:35.155Z,65.53
2023-04-20T17:46:08.333Z,65.90
2023-04-20T17:47:40.899Z,65.63
2023-04-20T17:49:13.125Z,66.43
2023-04-20T17:50:49.310Z,67.14
2023-04-20T17:52:22.694Z,66.98
2023-04-20T17:53:54.647Z,67.12
2023-04-20T17:55:26.790Z,67.38
2023-04-20T17:56:58.956Z,67.91
2023-04-20T17:58:31.058Z,67.81
2023-04-20T18:00:05.485Z,68.05
2023-04-20T18:01:37.731Z,68.15
2023-04-20T18:03:10.443Z,68.10
2023-04-20T18:04:43.020Z,68.93
2023-04-20T18:06:15.282Z,69.23
2023-04-20T18:07:47.498Z,69.56
2023-04-20T18:09:19.733Z,69.98
2023-04-20T18:10:51.925Z,69.86
2023-04-20T18:12:24.074Z,69.84
2023-04-20T18:13:56.359Z,70.19
2023-04-20T18:15:28.491Z,70.23
2023-04-20T18:17:00.743Z,70.15
2023-04-20T18:18:33.654Z,70.17
2023-04-20T18:20:06.788Z,70.57
2023-04-20T18:21:38.936Z,70.65
2023-04-20T18:23:14.062Z,71.20
2023-04-20T18:24:46.185Z,71.58
2023-04-20T18:26:18.395Z,71.42
2023-04-20T18:27:50.575Z,71.77
2023-04-20T18:29:22.845Z,71.97
2023-04-20T18:30:57.042Z,72.04
2023-04-20T18:32:31.854Z,72.48
2023-04-20T18:34:03.921Z,72.62
2023-04-20T18:35:36.190Z,72.95
2023-04-20T18:37:10.194Z,73.07
2023-04-20T18:38:42.319Z,73.40
2023-04-20T18:40:16.269Z,73.56
2023-04-20T18:41:48.935Z,73.42
2023-04-20T18:43:21.148Z,73.40
2023-04-20T18:44:54.034Z,73.41
2023-04-20T18:46:26.256Z,73.21
2023-04-20T18:48:01.409Z,73.38
2023-04-20T18:49:35.329Z,73.59
2023-04-20T18:51:07.560Z,73.88
2023-04-20T18:52:39.726Z,74.25
2023-04-20T18:54:11.767Z,74.40
2023-04-20T18:55:44.094Z,74.84
2023-04-20T18:57:16.336Z,75.19
2023-04-20T18:58:48.537Z,75.88
2023-04-20T19:00:20.755Z,75.83
2023-04-20T19:01:53.132Z,76.33
2023-04-20T19:03:26.248Z,76.61
2023-04-20T19:04:58.430Z,77.34
2023-04-20T19:06:31.631Z,77.12
2023-04-20T19:08:04.111Z,77.35
2023-04-20T19:09:36.321Z,77.55
2023-04-20T19:11:08.491Z,77.67
2023-04-20T19:12:40.927Z,77.56
2023-04-20T19:14:13.093Z,77.70
2023-04-20T19:15:45.745Z,77.97
2023-04-20T19:17:17.832Z,77.90
2023-04-20T19:18:50.889Z,78.28
2023-04-20T19:20:24.250Z,78.45
2023-04-20T19:21:57.878Z,78.68
2023-04-20T19:23:29.976Z,78.86
2023-04-20T19:25:02.243Z,79.00
2023-04-20T19:26:34.377Z,79.00
2023-04-20T19:28:08.524Z,79.26
2023-04-20T19:29:41.043Z,79.20
2023-04-20T19:31:16.380Z,79.25
2023-04-20T19:32:48.620Z,79.16
2023-04-20T19:34:21.796Z,79.41
2023-04-20T19:35:54.161Z,79.42
2023-04-20T19:37:26.708Z,79.47
2023-04-20T19:38:59.495Z,79.39
2023-04-20T19:40:31.822Z,79.49
2023-04-20T19:42:04.044Z,79.91
2023-04-20T19:43:36.977Z,79.60
2023-04-20T19:45:12.138Z,80.11
2023-04-20T19:46:44.244Z,80.17
2023-04-20T19:48:16.476Z,80.65
2023-04-20T19:49:48.963Z,80.73
2023-04-20T19:51:22.704Z,80.80
2023-04-20T19:52:54.852Z,81.09
2023-04-20T19:54:27.342Z,80.77
2023-04-20T19:55:59.666Z,81.07
2023-04-20T19:57:32.018Z,81.27
2023-04-20T19:59:07.044Z,81.17
2023-04-20T20:00:39.368Z,80.67
2023-04-20T20:02:11.786Z,80.37
2023-04-20T20:03:44.319Z,80.12
2023-04-20T20:05:16.621Z,80.03
2023-04-20T20:06:51.008Z,80.15
2023-04-20T20:08:23.310Z,80.17
2023-04-20T20:09:55.879Z,80.27
2023-04-20T20:11:28.807Z,80.66
2023-04-20T20:13:00.975Z,81.29
2023-04-20T20:14:33.175Z,81.66
2023-04-20T20:16:05.757Z,82.07
2023-04-20T20:17:38.009Z,82.59
2023-04-20T20:19:10.318Z,82.62
2023-04-20T20:20:44.031Z,82.70
2023-04-20T20:22:17.059Z,82.73
2023-04-20T20:23:49.209Z,83.09
2023-04-20T20:25:21.398Z,83.11
2023-04-20T20:26:53.514Z,82.90
2023-04-20T20:28:25.711Z,82.61
2023-04-20T20:29:57.883Z,82.68
2023-04-20T20:31:30.163Z,82.82
2023-04-20T20:33:02.414Z,82.75
2023-04-20T20:34:34.540Z,82.51
2023-04-20T20:36:07.288Z,82.77
2023-04-20T20:37:40.579Z,82.96
2023-04-20T20:39:14.093Z,82.65
2023-04-20T20:40:46.376Z,82.94
2023-04-20T20:42:18.496Z,83.13
2023-04-20T20:43:50.727Z,83.77
2023-04-20T20:45:23.826Z,84.08
2023-04-20T20:46:56.103Z,83.99
2023-04-20T20:48:28.256Z,83.99
2023-04-20T20:50:00.403Z,83.91
2023-04-20T20:51:32.612Z,83.80
2023-04-20T20:53:04.778Z,83.76
2023-04-20T20:54:36.893Z,83.53
2023-04-20T20:56:09.000Z,83.54
2023-04-20T20:57:41.470Z,83.56
2023-04-20T20:59:13.546Z,83.52
2023-04-20T21:00:47.341Z,83.66
2023-04-20T21:02:19.649Z,83.63
2023-04-20T21:03:52.098Z,83.49
2023-04-20T21:05:24.395Z,83.72
2023-04-20T21:06:56.690Z,83.84
2023-04-20T21:08:28.841Z,84.13
2023-04-20T21:10:01.202Z,84.33
2023-04-20T21:11:33.237Z,84.31
2023-04-20T21:13:06.274Z,84.67
2023-04-20T21:14:38.433Z,84.77
2023-04-20T21:16:13.599Z,85.04
2023-04-20T21:17:45.720Z,85.05
2023-04-20T21:19:18.182Z,85.33
2023-04-20T21:20:50.749Z,85.28
2023-04-20T21:22:22.944Z,85.58
2023-04-20T21:23:55.364Z,85.94
2023-04-20T21:25:27.384Z,85.73
2023-04-20T21:26:59.554Z,85.76
2023-04-20T21:28:31.858Z,85.63
2023-04-20T21:31:52.360Z,85.76
2023-04-20T21:33:24.362Z,85.63
2023-04-20T21:34:56.551Z,85.93
2023-04-20T21:36:28.597Z,85.78
2023-04-20T21:38:00.668Z,86.04
2023-04-20T21:39:32.998Z,86.06
2023-04-20T21:41:05.398Z,86.05
2023-04-20T21:42:37.493Z,86.32
2023-04-20T21:44:09.615Z,86.31
2023-04-20T21:45:41.769Z,86.34
2023-04-20T21:47:13.926Z,86.07
2023-04-20T21:48:46.027Z,86.06
2023-04-20T21:50:18.942Z,85.92
2023-04-20T21:51:51.248Z,85.83
2023-04-20T21:53:23.407Z,85.80
2023-04-20T21:54:55.467Z,85.33
2023-04-20T21:56:27.597Z,85.45
2023-04-20T21:57:59.732Z,85.35
2023-04-20T21:59:32.017Z,85.31
2023-04-20T22:01:04.377Z,85.30
2023-04-20T22:02:36.704Z,85.39
2023-04-20T22:04:10.820Z,85.70
2023-04-20T22:05:43.204Z,86.08
2023-04-20T22:07:18.139Z,85.93
2023-04-20T22:08:50.258Z,85.54
2023-04-20T22:10:22.327Z,85.58
2023-04-20T22:11:54.396Z,85.59
2023-04-20T22:13:26.679Z,86.08
2023-04-20T22:14:58.787Z,85.98
2023-04-20T22:16:34.214Z,86.06
2023-04-20T22:18:06.326Z,85.83
2023-04-20T22:19:38.471Z,85.69
2023-04-20T22:21:10.535Z,85.82
2023-04-20T22:22:42.629Z,85.89
2023-04-20T22:24:14.592Z,86.07
2023-04-20T22:25:46.886Z,86.43
2023-04-20T22:27:18.928Z,86.39
2023-04-20T22:28:51.250Z,86.48
2023-04-20T22:30:23.385Z,86.02
2023-04-20T22:31:55.694Z,85.82
2023-04-20T22:33:27.784Z,85.78
2023-04-20T22:34:59.936Z,85.75
2023-04-20T22:36:32.011Z,85.83
2023-04-20T22:38:04.172Z,85.83
2023-04-20T22:39:36.364Z,86.00
2023-04-20T22:41:08.513Z,85.93
2023-04-20T22:42:40.541Z,85.49
2023-04-20T22:44:12.578Z,85.56
2023-04-20T22:45:44.571Z,85.68
2023-04-20T22:47:16.703Z,85.80
2023-04-20T22:48:49.483Z,85.85
2023-04-20T22:50:21.679Z,85.84
2023-04-20T22:51:57.923Z,85.69
2023-04-20T22:53:30.511Z,86.04
2023-04-20T22:55:02.705Z,86.02
2023-04-20T22:56:35.610Z,86.17
2023-04-20T22:58:07.753Z,86.24
2023-04-20T22:59:39.871Z,86.32
2023-04-20T23:01:11.978Z,86.33
2023-04-20T23:02:44.330Z,86.76
2023-04-20T23:04:17.204Z,86.83
2023-04-20T23:05:49.423Z,86.70
2023-04-20T23:07:21.621Z,86.72
2023-04-20T23:08:53.714Z,86.77
2023-04-20T23:10:28.941Z,86.57
2023-04-20T23:12:01.051Z,86.34
2023-04-20T23:13:33.695Z,86.50
2023-04-20T23:15:06.499Z,86.65
2023-04-20T23:16:38.719Z,86.43
2023-04-20T23:18:11.085Z,86.52
2023-04-20T23:19:43.515Z,86.76
2023-04-20T23:21:15.726Z,86.86
2023-04-20T23:22:47.844Z,87.08
2023-04-20T23:24:19.871Z,87.17
2023-04-20T23:25:52.059Z,87.39
2023-04-20T23:27:24.260Z,87.14
2023-04-20T23:28:56.512Z,87.18
2023-04-20T23:30:28.646Z,87.12
2023-04-20T23:32:03.447Z,87.26
2023-04-20T23:33:35.764Z,87.01
2023-04-20T23:35:08.244Z,87.09
2023-04-20T23:36:40.381Z,87.19
2023-04-20T23:38:12.484Z,87.26